createdAt,value
2018-06-05T00:00:44.396Z,37.8
2018-06-05T00:01:35.366Z,37.8
2018-06-05T00:02:24.531Z,37.8
2018-06-05T00:03:15.266Z,37.8
2018-06-05T00:04:05.531Z,37.8
2018-06-05T00:04:54.768Z,37.8
2018-06-05T00:05:45.356Z,37.8
2018-06-05T00:06:35.698Z,37.8
2018-06-05T00:07:25.452Z,37.8
2018-06-05T00:08:15.285Z,37.7
2018-06-05T00:09:05.656Z,37.7
2018-06-05T00:09:55.715Z,37.7
2018-06-05T00:10:45.550Z,37.7
2018-06-05T00:11:36.117Z,37.6
2018-06-05T00:12:26.189Z,37.7
2018-06-05T00:13:15.957Z,37.7
2018-06-05T00:14:05.984Z,37.6
2018-06-05T00:14:56.354Z,37.6
2018-06-05T00:15:46.379Z,37.6
2018-06-05T00:16:36.187Z,37.6
2018-06-05T00:17:26.246Z,37.6
2018-06-05T00:18:16.860Z,37.6
2018-06-05T00:19:06.957Z,37.6
2018-06-05T00:19:56.472Z,37.6
2018-06-05T00:20:47.046Z,37.6
2018-06-05T00:21:36.874Z,37.6
2018-06-05T00:22:26.881Z,37.6
2018-06-05T00:23:15.941Z,37.6
2018-06-05T00:24:06.863Z,37.6
2018-06-05T00:24:56.932Z,37.6
2018-06-05T00:25:46.988Z,37.6
2018-06-05T00:26:36.314Z,37.6
2018-06-05T00:27:26.056Z,37.6
2018-06-05T00:28:16.659Z,37.5
2018-06-05T00:29:06.502Z,37.5
2018-06-05T00:29:56.192Z,37.5
2018-06-05T00:30:46.790Z,37.5
2018-06-05T00:31:36.871Z,37.5
2018-06-05T00:32:26.621Z,37.5
2018-06-05T00:33:18.066Z,37.4
2018-06-05T00:34:07.241Z,37.5
2018-06-05T00:34:57.564Z,37.5
2018-06-05T00:35:47.918Z,37.4
2018-06-05T00:36:38.050Z,37.4
2018-06-05T00:37:28.402Z,37.4
2018-06-05T00:38:17.544Z,37.4
2018-06-05T00:39:08.198Z,37.4
2018-06-05T00:39:58.008Z,37.4
2018-06-05T00:40:47.762Z,37.4
2018-06-05T00:41:38.432Z,37.4
2018-06-05T00:42:28.752Z,37.4
2018-06-05T00:43:17.953Z,37.4
2018-06-05T00:44:08.315Z,37.4
2018-06-05T00:44:57.570Z,37.4
2018-06-05T00:45:48.452Z,37.4
2018-06-05T00:46:38.211Z,37.4
2018-06-05T00:47:28.890Z,37.4
2018-06-05T00:48:18.603Z,37.4
2018-06-05T00:49:09.243Z,37.4
2018-06-05T00:49:58.779Z,37.3
2018-06-05T00:50:48.620Z,37.3
2018-06-05T00:51:38.865Z,37.3
2018-06-05T00:52:28.890Z,37.3
2018-06-05T00:53:18.963Z,37.3
2018-06-05T00:54:09.362Z,37.3
2018-06-05T00:54:58.916Z,37.3
2018-06-05T00:55:49.728Z,37.3
2018-06-05T00:56:39.521Z,37.3
2018-06-05T00:57:28.773Z,37.3
2018-06-05T00:58:19.361Z,37.3
2018-06-05T00:59:09.997Z,37.3
2018-06-05T00:59:59.507Z,37.3
2018-06-05T01:00:49.666Z,37.3
2018-06-05T01:01:39.988Z,37.3
2018-06-05T01:02:29.425Z,37.3
2018-06-05T01:03:20.061Z,37.2
2018-06-05T01:04:09.305Z,37.2
2018-06-05T01:05:00.486Z,37.2
2018-06-05T01:05:50.262Z,37.2
2018-06-05T01:06:39.454Z,37.2
2018-06-05T01:07:29.521Z,37.2
2018-06-05T01:08:20.440Z,37.2
2018-06-05T01:09:09.921Z,37.2
2018-06-05T01:10:00.859Z,37.1
2018-06-05T01:10:50.625Z,37.1
2018-06-05T01:11:40.143Z,37.1
2018-06-05T01:12:30.499Z,37.1
2018-06-05T01:13:19.944Z,37.1
2018-06-05T01:14:10.898Z,37.1
2018-06-05T01:15:01.263Z,37.1
2018-06-05T01:15:50.530Z,37.1
2018-06-05T01:16:40.785Z,37.1
2018-06-05T01:17:30.561Z,37.1
2018-06-05T01:18:20.905Z,37.1
2018-06-05T01:19:11.543Z,37.1
2018-06-05T01:20:01.403Z,37.1
2018-06-05T01:20:51.124Z,37.1
2018-06-05T01:21:41.145Z,37.1
2018-06-05T01:22:30.765Z,37.1
2018-06-05T01:23:21.036Z,37.1
2018-06-05T01:24:11.395Z,37.1
2018-06-05T01:25:01.200Z,37
2018-06-05T01:25:51.510Z,37
2018-06-05T01:26:41.828Z,37
2018-06-05T01:27:31.879Z,37
2018-06-05T01:28:21.717Z,37
2018-06-05T01:29:11.795Z,37
2018-06-05T01:30:01.885Z,37
2018-06-05T01:30:51.925Z,37
2018-06-05T01:31:42.616Z,37
2018-06-05T01:32:31.980Z,37
2018-06-05T01:33:21.789Z,36.9
2018-06-05T01:34:12.472Z,36.9
2018-06-05T01:35:02.520Z,36.9
2018-06-05T01:35:51.206Z,36.9
2018-06-05T01:36:41.499Z,36.9
2018-06-05T01:37:31.324Z,36.9
2018-06-05T01:38:21.964Z,36.9
2018-06-05T01:39:11.919Z,36.9
2018-06-05T01:40:01.674Z,36.9
2018-06-05T01:40:52.167Z,36.9
2018-06-05T01:41:41.717Z,36.9
2018-06-05T01:42:31.202Z,36.9
2018-06-05T01:43:21.798Z,36.9
2018-06-05T01:44:11.718Z,36.9
2018-06-05T01:45:01.467Z,36.9
2018-06-05T01:45:51.751Z,36.9
2018-06-05T01:46:42.498Z,36.9
2018-06-05T01:47:31.925Z,36.8
2018-06-05T01:48:22.741Z,36.8
2018-06-05T01:49:12.229Z,36.8
2018-06-05T01:50:03.884Z,36.8
2018-06-05T01:50:53.706Z,36.8
2018-06-05T01:51:43.511Z,36.8
2018-06-05T01:52:34.088Z,36.8
2018-06-05T01:53:23.845Z,36.8
2018-06-05T01:54:14.218Z,36.8
2018-06-05T01:55:04.117Z,36.8
2018-06-05T01:55:53.846Z,36.8
2018-06-05T01:56:43.867Z,36.8
2018-06-05T01:57:34.206Z,36.8
2018-06-05T01:58:23.696Z,36.8
2018-06-05T01:59:13.011Z,36.8
2018-06-05T02:00:03.678Z,36.8
2018-06-05T02:00:54.006Z,36.8
2018-06-05T02:01:44.058Z,36.8
2018-06-05T02:02:33.843Z,36.8
2018-06-05T02:03:24.142Z,36.7
2018-06-05T02:04:13.653Z,36.7
2018-06-05T02:05:03.740Z,36.7
2018-06-05T02:05:53.548Z,36.7
2018-06-05T02:06:43.852Z,36.7
2018-06-05T02:07:34.507Z,36.7
2018-06-05T02:08:24.773Z,36.7
2018-06-05T02:09:14.574Z,36.7
2018-06-05T02:10:05.170Z,36.6
2018-06-05T02:10:54.431Z,36.6
2018-06-05T02:11:43.191Z,36.6
2018-06-05T02:12:34.400Z,36.7
2018-06-05T02:13:24.578Z,36.6
2018-06-05T02:14:14.436Z,36.6
2018-06-05T02:15:05.375Z,36.6
2018-06-05T02:15:54.327Z,36.6
2018-06-05T02:16:44.491Z,36.6
2018-06-05T02:17:36.142Z,36.6
2018-06-05T02:18:25.307Z,36.6
2018-06-05T02:19:15.610Z,36.6
2018-06-05T02:20:05.144Z,36.6
2018-06-05T02:20:55.764Z,36.6
2018-06-05T02:21:46.076Z,36.6
2018-06-05T02:22:35.548Z,36.6
2018-06-05T02:23:25.914Z,36.6
2018-06-05T02:24:15.715Z,36.6
2018-06-05T02:25:06.105Z,36.6
2018-06-05T02:25:55.516Z,36.6
2018-06-05T02:26:45.958Z,36.6
2018-06-05T02:27:36.479Z,36.6
2018-06-05T02:28:26.018Z,36.5
2018-06-05T02:29:16.912Z,36.5
2018-06-05T02:30:06.454Z,36.5
2018-06-05T02:30:56.219Z,36.5
2018-06-05T02:31:46.101Z,36.5
2018-06-05T02:32:36.885Z,36.5
2018-06-05T02:33:25.872Z,36.5
2018-06-05T02:34:17.634Z,36.4
2018-06-05T02:35:06.527Z,36.4
2018-06-05T02:35:56.883Z,36.4
2018-06-05T02:36:46.989Z,36.4
2018-06-05T02:37:37.263Z,36.4
2018-06-05T02:38:27.329Z,36.4
2018-06-05T02:39:17.085Z,36.4
2018-06-05T02:40:07.207Z,36.4
2018-06-05T02:40:57.577Z,36.4
2018-06-05T02:41:47.911Z,36.4
2018-06-05T02:42:37.642Z,36.4
2018-06-05T02:43:28.009Z,36.4
2018-06-05T02:44:18.072Z,36.4
2018-06-05T02:45:07.863Z,36.4
2018-06-05T02:45:58.162Z,36.4
2018-06-05T02:46:47.165Z,36.4
2018-06-05T02:47:38.027Z,36.4
2018-06-05T02:48:28.427Z,36.4
2018-06-05T02:49:17.883Z,36.3
2018-06-05T02:50:07.984Z,36.4
2018-06-05T02:50:57.713Z,36.3
2018-06-05T02:51:48.684Z,36.3
2018-06-05T02:52:38.713Z,36.3
2018-06-05T02:53:28.764Z,36.3
2018-06-05T02:54:18.831Z,36.3
2018-06-05T02:55:08.925Z,36.3
2018-06-05T02:55:58.982Z,36.3
2018-06-05T02:56:48.173Z,36.3
2018-06-05T02:57:38.786Z,36.3
2018-06-05T02:58:27.477Z,36.3
2018-06-05T02:59:18.950Z,36.3
2018-06-05T03:00:09.067Z,36.3
2018-06-05T03:00:58.838Z,36.3
2018-06-05T03:01:49.452Z,36.3
2018-06-05T03:02:39.215Z,36.3
2018-06-05T03:03:28.683Z,36.3
2018-06-05T03:04:19.049Z,36.3
2018-06-05T03:05:08.509Z,36.3
2018-06-05T03:05:59.138Z,36.3
2018-06-05T03:06:48.950Z,36.2
2018-06-05T03:07:39.035Z,36.3
2018-06-05T03:08:29.316Z,36.2
2018-06-05T03:09:18.948Z,36.2
2018-06-05T03:10:09.501Z,36.2
2018-06-05T03:10:59.537Z,36.2
2018-06-05T03:11:49.364Z,36.2
2018-06-05T03:12:39.106Z,36.2
2018-06-05T03:13:30.032Z,36.2
2018-06-05T03:14:19.862Z,36.2
2018-06-05T03:15:09.044Z,36.2
2018-06-05T03:15:59.949Z,36.1
2018-06-05T03:16:50.030Z,36.1
2018-06-05T03:17:39.762Z,36.1
2018-06-05T03:18:29.856Z,36.1
2018-06-05T03:19:20.459Z,36.1
2018-06-05T03:20:10.807Z,36.1
2018-06-05T03:20:59.462Z,36.1
2018-06-05T03:21:51.046Z,36.1
2018-06-05T03:22:40.978Z,36.1
2018-06-05T03:23:29.938Z,36.1
2018-06-05T03:24:21.139Z,36.1
2018-06-05T03:25:25.654Z,36.1
2018-06-05T03:26:00.392Z,36.1
2018-06-05T03:26:51.335Z,36.1
2018-06-05T03:27:40.843Z,36.1
2018-06-05T03:28:30.887Z,36.1
2018-06-05T03:29:20.706Z,36.1
2018-06-05T03:30:11.081Z,36.1
2018-06-05T03:31:01.448Z,36.1
2018-06-05T03:31:51.521Z,36.1
2018-06-05T03:32:41.236Z,36.1
2018-06-05T03:33:31.783Z,36.1
2018-06-05T03:34:21.103Z,36
2018-06-05T03:35:11.954Z,36
2018-06-05T03:36:01.999Z,36
2018-06-05T03:36:52.020Z,36
2018-06-05T03:37:42.137Z,36
2018-06-05T03:38:31.698Z,36
2018-06-05T03:39:21.682Z,36
2018-06-05T03:40:12.025Z,36
2018-06-05T03:41:02.512Z,36
2018-06-05T03:41:52.452Z,36
2018-06-05T03:42:41.921Z,35.9
2018-06-05T03:43:32.557Z,35.9
2018-06-05T03:44:22.619Z,35.9
2018-06-05T03:45:12.444Z,36
2018-06-05T03:46:02.771Z,35.9
2018-06-05T03:46:52.561Z,35.9
2018-06-05T03:47:42.058Z,35.9
2018-06-05T03:48:32.688Z,35.9
2018-06-05T03:49:22.701Z,35.9
2018-06-05T03:50:13.062Z,35.9
2018-06-05T03:51:02.598Z,35.9
2018-06-05T03:51:52.374Z,35.9
2018-06-05T03:52:43.027Z,35.9
2018-06-05T03:53:33.049Z,35.9
2018-06-05T03:54:22.298Z,35.9
2018-06-05T03:55:12.621Z,35.9
2018-06-05T03:56:03.251Z,35.9
2018-06-05T03:56:53.600Z,35.9
2018-06-05T03:57:43.382Z,35.9
2018-06-05T03:58:33.696Z,35.9
2018-06-05T03:59:23.816Z,35.9
2018-06-05T04:00:13.963Z,35.9
2018-06-05T04:01:03.394Z,35.9
2018-06-05T04:01:53.426Z,35.9
2018-06-05T04:02:44.025Z,35.9
2018-06-05T04:03:34.080Z,35.9
2018-06-05T04:04:23.472Z,35.9
2018-06-05T04:05:13.999Z,35.9
2018-06-05T04:06:03.762Z,35.8
2018-06-05T04:06:54.386Z,35.8
2018-06-05T04:07:44.131Z,35.8
2018-06-05T04:08:34.226Z,35.8
2018-06-05T04:09:23.986Z,35.8
2018-06-05T04:10:14.339Z,35.8
2018-06-05T04:11:03.896Z,35.8
2018-06-05T04:11:53.655Z,35.8
2018-06-05T04:12:44.549Z,35.8
2018-06-05T04:13:34.881Z,35.8
2018-06-05T04:14:24.345Z,35.8
2018-06-05T04:15:14.473Z,35.8
2018-06-05T04:16:04.487Z,35.8
2018-06-05T04:16:54.833Z,35.8
2018-06-05T04:17:44.437Z,35.8
2018-06-05T04:18:35.289Z,35.8
2018-06-05T04:19:25.052Z,35.8
2018-06-05T04:20:14.270Z,35.8
2018-06-05T04:21:04.611Z,35.8
2018-06-05T04:21:54.688Z,35.8
2018-06-05T04:22:45.588Z,35.8
2018-06-05T04:23:35.385Z,35.8
2018-06-05T04:24:25.719Z,35.8
2018-06-05T04:25:15.277Z,35.7
2018-06-05T04:26:05.551Z,35.8
2018-06-05T04:26:55.936Z,35.7
2018-06-05T04:27:45.750Z,35.7
2018-06-05T04:28:35.418Z,35.7
2018-06-05T04:29:26.070Z,35.7
2018-06-05T04:30:15.317Z,35.7
2018-06-05T04:31:05.723Z,35.7
2018-06-05T04:31:56.002Z,35.7
2018-06-05T04:32:46.330Z,35.7
2018-06-05T04:33:35.849Z,35.7
2018-06-05T04:34:26.427Z,35.7
2018-06-05T04:35:16.531Z,35.7
2018-06-05T04:36:06.263Z,35.7
2018-06-05T04:36:55.848Z,35.7
2018-06-05T04:37:45.635Z,35.7
2018-06-05T04:38:36.807Z,35.6
2018-06-05T04:39:26.862Z,35.6
2018-06-05T04:40:16.334Z,35.6
2018-06-05T04:41:05.936Z,35.6
2018-06-05T04:41:56.758Z,35.6
2018-06-05T04:42:46.831Z,35.6
2018-06-05T04:43:36.590Z,35.6
2018-06-05T04:44:26.409Z,35.6
2018-06-05T04:45:16.183Z,35.6
2018-06-05T04:46:05.777Z,35.6
2018-06-05T04:46:56.850Z,35.6
2018-06-05T04:47:48.147Z,35.6
2018-06-05T04:48:37.555Z,35.6
2018-06-05T04:49:27.629Z,35.6
2018-06-05T04:50:17.388Z,35.6
2018-06-05T04:51:07.752Z,35.6
2018-06-05T04:51:57.494Z,35.6
2018-06-05T04:52:47.343Z,35.6
2018-06-05T04:53:37.117Z,35.6
2018-06-05T04:54:27.999Z,35.6
2018-06-05T04:55:18.113Z,35.6
2018-06-05T04:56:07.851Z,35.6
2018-06-05T04:56:56.860Z,35.6
2018-06-05T04:57:47.433Z,35.6
2018-06-05T04:58:37.797Z,35.5
2018-06-05T04:59:27.112Z,35.5
2018-06-05T05:00:18.163Z,35.5
2018-06-05T05:01:08.211Z,35.5
2018-06-05T05:01:58.305Z,35.5
2018-06-05T05:02:48.093Z,35.5
2018-06-05T05:03:38.425Z,35.5
2018-06-05T05:04:27.948Z,35.5
2018-06-05T05:05:18.298Z,35.5
2018-06-05T05:06:08.438Z,35.5
2018-06-05T05:06:58.111Z,35.5
2018-06-05T05:07:48.772Z,35.5
2018-06-05T05:08:38.809Z,35.5
2018-06-05T05:09:28.868Z,35.5
2018-06-05T05:10:18.388Z,35.5
2018-06-05T05:11:08.803Z,35.5
2018-06-05T05:11:58.491Z,35.4
2018-06-05T05:12:48.611Z,35.4
2018-06-05T05:13:38.620Z,35.5
2018-06-05T05:14:28.990Z,35.4
2018-06-05T05:15:19.355Z,35.4
2018-06-05T05:16:08.853Z,35.4
2018-06-05T05:16:58.631Z,35.4
2018-06-05T05:17:49.225Z,35.4
2018-06-05T05:18:39.290Z,35.4
2018-06-05T05:19:29.118Z,35.4
2018-06-05T05:20:19.150Z,35.4
2018-06-05T05:21:10.138Z,35.4
2018-06-05T05:21:59.547Z,35.4
2018-06-05T05:22:50.174Z,35.4
2018-06-05T05:23:40.267Z,35.4
2018-06-05T05:24:30.030Z,35.4
2018-06-05T05:25:20.370Z,35.4
2018-06-05T05:26:09.888Z,35.4
2018-06-05T05:26:59.708Z,35.4
2018-06-05T05:27:50.574Z,35.3
2018-06-05T05:28:40.346Z,35.3
2018-06-05T05:29:30.713Z,35.3
2018-06-05T05:30:20.791Z,35.3
2018-06-05T05:31:10.582Z,35.2
2018-06-05T05:31:59.857Z,29.9
2018-06-05T05:32:50.368Z,29
2018-06-05T05:33:39.863Z,32.2
2018-06-05T05:34:30.835Z,32.4
2018-06-05T05:35:20.941Z,30.6
2018-06-05T05:36:10.918Z,28.8
2018-06-05T05:37:00.435Z,27.9
2018-06-05T05:37:50.783Z,27.6
2018-06-05T05:38:41.108Z,27.4
2018-06-05T05:39:30.971Z,27.4
2018-06-05T05:40:21.477Z,27.5
2018-06-05T05:41:10.726Z,27.6
2018-06-05T05:42:01.392Z,27.6
2018-06-05T05:43:41.492Z,28.1
2018-06-05T05:44:31.567Z,28.3
2018-06-05T05:45:21.071Z,28.6
2018-06-05T05:46:11.124Z,28.8
2018-06-05T05:47:01.208Z,29.1
2018-06-05T05:47:51.631Z,29.3
2018-06-05T05:48:41.939Z,28.3
2018-06-05T05:49:31.534Z,31.2
2018-06-05T05:50:21.801Z,34.1
2018-06-05T05:51:11.513Z,34.6
2018-06-05T05:52:01.643Z,33.9
2018-06-05T05:52:51.991Z,32.8
2018-06-05T05:53:41.781Z,32
2018-06-05T05:54:32.389Z,31.8
2018-06-05T05:55:21.845Z,32
2018-06-05T05:56:12.736Z,32.4
2018-06-05T05:57:02.300Z,32.7
2018-06-05T05:57:52.335Z,32.9
2018-06-05T05:58:42.689Z,32.9
2018-06-05T05:59:32.466Z,32.8
2018-06-05T06:00:22.537Z,32.8
2018-06-05T06:01:13.215Z,32.9
2018-06-05T06:02:03.292Z,33
2018-06-05T06:02:53.273Z,33.2
2018-06-05T06:03:43.198Z,33.3
2018-06-05T06:04:33.425Z,33.4
2018-06-05T06:05:22.589Z,33.5
2018-06-05T06:06:12.690Z,33.6
2018-06-05T06:07:03.647Z,33.7
2018-06-05T06:07:53.107Z,33.8
2018-06-05T06:08:43.180Z,33.9
2018-06-05T06:09:33.484Z,34.1
2018-06-05T06:10:23.591Z,34.2
2018-06-05T06:11:13.916Z,34.3
2018-06-05T06:12:03.692Z,34.4
2018-06-05T06:12:53.517Z,34.5
2018-06-05T06:13:43.852Z,34.6
2018-06-05T06:14:33.880Z,34.8
2018-06-05T06:15:23.403Z,34.9
2018-06-05T06:16:14.062Z,35
2018-06-05T06:17:04.078Z,35.1
2018-06-05T06:17:53.853Z,35.3
2018-06-05T06:18:43.697Z,35.4
2018-06-05T06:19:34.536Z,35.5
2018-06-05T06:20:23.813Z,35.6
2018-06-05T06:21:14.135Z,35.8
2018-06-05T06:22:03.985Z,35.9
2018-06-05T06:22:53.971Z,36.1
2018-06-05T06:23:44.863Z,36.1
2018-06-05T06:24:34.687Z,36.3
2018-06-05T06:25:24.724Z,36.4
2018-06-05T06:26:13.642Z,36.6
2018-06-05T06:27:05.906Z,36.6
2018-06-05T06:27:54.672Z,36.8
2018-06-05T06:28:44.967Z,36.9
2018-06-05T06:29:35.057Z,37.1
2018-06-05T06:30:25.405Z,37.2
2018-06-05T06:31:14.303Z,37.4
2018-06-05T06:32:04.964Z,37.5
2018-06-05T06:32:54.181Z,37.6
2018-06-05T06:33:45.387Z,37.8
2018-06-05T06:34:35.686Z,37.9
2018-06-05T06:35:24.625Z,38
2018-06-05T06:36:15.256Z,38.1
2018-06-05T06:37:05.319Z,38.3
2018-06-05T06:37:55.993Z,38.4
2018-06-05T06:38:45.184Z,38.6
2018-06-05T06:39:35.564Z,38.7
2018-06-05T06:40:25.919Z,38.9
2018-06-05T06:41:15.946Z,39
2018-06-05T06:42:05.459Z,39.1
2018-06-05T06:42:55.780Z,39.3
2018-06-05T06:43:45.319Z,39.4
2018-06-05T06:44:36.204Z,39.6
2018-06-05T06:45:26.278Z,39.7
2018-06-05T06:46:16.352Z,39.8
2018-06-05T06:47:06.432Z,39.9
2018-06-05T06:47:56.198Z,40.1
2018-06-05T06:48:47.233Z,40.2
2018-06-05T06:49:36.619Z,40.3
2018-06-05T06:50:25.799Z,40.5
2018-06-05T06:51:16.257Z,40.6
2018-06-05T06:52:06.535Z,40.8
2018-06-05T06:52:56.578Z,40.9
2018-06-05T06:53:46.994Z,41.1
2018-06-05T06:54:37.557Z,41.1
2018-06-05T06:55:26.776Z,41.3
2018-06-05T06:56:16.776Z,41.4
2018-06-05T06:57:06.564Z,41.6
2018-06-05T06:57:57.493Z,41.7
2018-06-05T06:58:47.550Z,41.8
2018-06-05T06:59:36.480Z,42
2018-06-05T07:00:27.372Z,42.1
2018-06-05T07:01:16.614Z,42.3
2018-06-05T07:02:07.266Z,42.4
2018-06-05T07:02:57.856Z,42.6
2018-06-05T07:03:46.011Z,42.8
2018-06-05T07:04:37.216Z,42.9
2018-06-05T07:05:27.281Z,43.1
2018-06-05T07:06:17.609Z,43.2
2018-06-05T07:07:07.705Z,43.3
2018-06-05T07:07:56.930Z,43.5
2018-06-05T07:08:47.821Z,43.6
2018-06-05T07:09:37.298Z,43.8
2018-06-05T07:10:27.926Z,43.9
2018-06-05T07:11:18.205Z,44.1
2018-06-05T07:12:08.550Z,44.2
2018-06-05T07:12:57.509Z,44.3
2018-06-05T07:13:48.400Z,44.5
2018-06-05T07:14:38.266Z,44.6
2018-06-05T07:15:28.592Z,44.8
2018-06-05T07:16:18.033Z,44.9
2018-06-05T07:17:08.893Z,45
2018-06-05T07:17:58.682Z,45.1
2018-06-05T07:18:49.041Z,45.3
2018-06-05T07:19:38.856Z,45.4
2018-06-05T07:20:29.202Z,45.6
2018-06-05T07:21:18.986Z,45.8
2018-06-05T07:22:08.756Z,45.9
2018-06-05T07:22:59.378Z,46.1
2018-06-05T07:23:49.186Z,46.2
2018-06-05T07:24:39.276Z,46.3
2018-06-05T07:25:29.622Z,46.5
2018-06-05T07:26:19.058Z,46.6
2018-06-05T07:27:09.500Z,46.8
2018-06-05T07:27:59.010Z,46.9
2018-06-05T07:28:49.579Z,47.1
2018-06-05T07:29:39.357Z,47.3
2018-06-05T07:30:30.397Z,47.4
2018-06-05T07:31:19.198Z,47.5
2018-06-05T07:32:09.529Z,47.6
2018-06-05T07:32:59.938Z,47.8
2018-06-05T07:33:49.702Z,47.9
2018-06-05T07:34:39.568Z,48.1
2018-06-05T07:35:29.613Z,48.2
2018-06-05T07:36:20.440Z,48.3
2018-06-05T07:37:10.011Z,48.4
2018-06-05T07:38:00.299Z,48.6
2018-06-05T07:38:50.332Z,48.7
2018-06-05T07:39:40.149Z,48.8
2018-06-05T07:40:29.909Z,48.9
2018-06-05T07:41:20.241Z,49.1
2018-06-05T07:42:10.922Z,49.3
2018-06-05T07:43:00.361Z,49.4
2018-06-05T07:43:49.871Z,49.6
2018-06-05T07:44:41.071Z,49.8
2018-06-05T07:45:30.854Z,49.9
2018-06-05T07:46:20.982Z,50.1
2018-06-05T07:47:10.780Z,50.2
2018-06-05T07:48:01.079Z,50.4
2018-06-05T07:48:51.378Z,50.5
2018-06-05T07:49:40.889Z,50.6
2018-06-05T07:50:31.552Z,50.8
2018-06-05T07:51:20.226Z,50.9
2018-06-05T07:52:11.183Z,51
2018-06-05T07:53:01.192Z,51.2
2018-06-05T07:53:50.981Z,51.3
2018-06-05T07:54:40.769Z,51.4
2018-06-05T07:55:31.826Z,51.6
2018-06-05T07:56:22.007Z,51.8
2018-06-05T07:57:11.761Z,51.9
2018-06-05T07:58:01.527Z,52.1
2018-06-05T07:58:52.164Z,52.1
2018-06-05T07:59:41.703Z,52.1
2018-06-05T08:00:32.050Z,52.1
2018-06-05T08:01:21.608Z,52.3
2018-06-05T08:02:12.427Z,52.6
2018-06-05T08:03:02.246Z,52.8
2018-06-05T08:03:52.046Z,52.3
2018-06-05T08:04:42.664Z,52.1
2018-06-05T08:05:32.119Z,52.3
2018-06-05T08:06:21.952Z,52.7
2018-06-05T08:07:12.886Z,53.1
2018-06-05T08:08:02.321Z,53.4
2018-06-05T08:08:52.672Z,53.6
2018-06-05T08:09:42.481Z,53.8
2018-06-05T08:10:32.525Z,53.9
2018-06-05T08:11:22.603Z,54.1
2018-06-05T08:12:13.266Z,54.3
2018-06-05T08:13:02.551Z,54.4
2018-06-05T08:13:52.356Z,54.6
2018-06-05T08:14:41.814Z,54.8
2018-06-05T08:15:33.012Z,54.9
2018-06-05T08:16:22.290Z,55.1
2018-06-05T08:17:12.481Z,55.1
2018-06-05T08:18:03.698Z,55.3
2018-06-05T08:18:53.441Z,55.3
2018-06-05T08:19:43.263Z,55.4
2018-06-05T08:20:33.869Z,55.5
2018-06-05T08:21:23.416Z,55.6
2018-06-05T08:22:13.716Z,55.8
2018-06-05T08:23:03.792Z,55.8
2018-06-05T08:23:52.902Z,55.9
2018-06-05T08:24:43.778Z,56.1
2018-06-05T08:25:33.450Z,56.2
2018-06-05T08:26:24.039Z,56.3
2018-06-05T08:27:14.337Z,56.4
2018-06-05T08:28:04.023Z,56.5
2018-06-05T08:28:54.563Z,56.6
2018-06-05T08:29:44.302Z,56.8
2018-06-05T08:30:34.591Z,56.9
2018-06-05T08:31:23.953Z,57
2018-06-05T08:32:14.533Z,57.1
2018-06-05T08:33:04.582Z,56.9
2018-06-05T08:33:54.305Z,56.2
2018-06-05T08:34:44.150Z,55.9
2018-06-05T08:35:35.030Z,56.3
2018-06-05T08:36:23.986Z,56.8
2018-06-05T08:37:14.882Z,57.3
2018-06-05T08:38:05.711Z,57.6
2018-06-05T08:38:55.017Z,57.7
2018-06-05T08:39:44.805Z,57.8
2018-06-05T08:40:34.860Z,57.9
2018-06-05T08:41:24.949Z,58
2018-06-05T08:42:15.355Z,58.1
2018-06-05T08:43:04.512Z,58.3
2018-06-05T08:43:55.386Z,58.4
2018-06-05T08:44:45.441Z,58.5
2018-06-05T08:45:35.827Z,58.7
2018-06-05T08:46:25.038Z,58.4
2018-06-05T08:48:05.831Z,57.4
2018-06-05T08:48:56.139Z,57.4
2018-06-05T08:49:45.914Z,57.9
2018-06-05T08:50:35.690Z,58.5
2018-06-05T08:51:24.669Z,58.9
2018-06-05T08:52:14.981Z,59.1
2018-06-05T08:53:06.081Z,59.2
2018-06-05T08:53:55.710Z,59.3
2018-06-05T08:54:44.931Z,59.4
2018-06-05T08:55:35.818Z,59.5
2018-06-05T08:56:25.609Z,59.7
2018-06-05T08:57:16.214Z,59.8
2018-06-05T08:58:05.460Z,59.9
2018-06-05T08:58:56.369Z,60
2018-06-05T08:59:46.408Z,60.1
2018-06-05T09:00:36.684Z,60.3
2018-06-05T09:01:25.431Z,60.4
2018-06-05T09:02:16.859Z,60.5
2018-06-05T09:03:06.981Z,60.6
2018-06-05T09:03:57.209Z,60.8
2018-06-05T09:04:46.272Z,60.9
2018-06-05T09:05:37.081Z,61
2018-06-05T09:06:26.627Z,61.1
2018-06-05T09:07:17.034Z,61.2
2018-06-05T09:08:06.559Z,61.3
2018-06-05T09:08:56.635Z,61.3
2018-06-05T09:09:47.100Z,61.3
2018-06-05T09:10:37.186Z,61.4
2018-06-05T09:11:27.359Z,61.6
2018-06-05T09:12:16.340Z,61.6
2018-06-05T09:13:07.351Z,61.7
2018-06-05T09:13:57.453Z,61.7
2018-06-05T09:14:47.788Z,61.6
2018-06-05T09:15:37.850Z,61.4
2018-06-05T09:16:27.089Z,61.4
2018-06-05T09:17:17.990Z,61.3
2018-06-05T09:18:06.717Z,61.4
2018-06-05T09:18:58.058Z,61.4
2018-06-05T09:19:47.699Z,61.6
2018-06-05T09:20:37.251Z,61.6
2018-06-05T09:21:27.746Z,61.7
2018-06-05T09:22:18.352Z,61.8
2018-06-05T09:23:08.194Z,61.9
2018-06-05T09:23:58.479Z,61.9
2018-06-05T09:24:48.828Z,62.1
2018-06-05T09:25:37.785Z,62.1
2018-06-05T09:26:28.728Z,62.1
2018-06-05T09:27:18.706Z,62.3
2018-06-05T09:28:08.277Z,62.3
2018-06-05T09:28:59.561Z,62.4
2018-06-05T09:29:48.605Z,62.5
2018-06-05T09:30:38.987Z,62.6
2018-06-05T09:31:28.303Z,62.6
2018-06-05T09:32:18.623Z,62.4
2018-06-05T09:33:09.188Z,61.8
2018-06-05T09:33:59.250Z,61.8
2018-06-05T09:34:49.286Z,62.1
2018-06-05T09:35:39.418Z,62.5
2018-06-05T09:36:29.469Z,62.8
2018-06-05T09:37:19.817Z,62.9
2018-06-05T09:38:09.032Z,63
2018-06-05T09:38:59.443Z,63
2018-06-05T09:39:49.759Z,63.1
2018-06-05T09:40:39.556Z,63.2
2018-06-05T09:41:29.042Z,63.3
2018-06-05T09:42:20.193Z,63.3
2018-06-05T09:43:09.220Z,63.4
2018-06-05T09:44:00.069Z,63.4
2018-06-05T09:44:50.163Z,63.5
2018-06-05T09:45:39.622Z,63.6
2018-06-05T09:46:29.981Z,63.6
2018-06-05T09:47:20.386Z,63.7
2018-06-05T09:48:10.618Z,63.8
2018-06-05T09:49:00.259Z,63.8
2018-06-05T09:49:50.871Z,63.9
2018-06-05T09:50:40.022Z,63.9
2018-06-05T09:51:30.390Z,64
2018-06-05T09:52:19.643Z,64.1
2018-06-05T09:53:10.835Z,64.1
2018-06-05T09:54:00.273Z,64.2
2018-06-05T09:54:50.334Z,64.3
2018-06-05T09:55:40.973Z,64.3
2018-06-05T09:56:30.536Z,64.4
2018-06-05T09:57:20.867Z,64.4
2018-06-05T09:58:11.342Z,64.5
2018-06-05T09:59:01.263Z,64.5
2018-06-05T09:59:51.053Z,64.6
2018-06-05T10:00:40.527Z,64.6
2018-06-05T10:01:30.577Z,64.6
2018-06-05T10:02:20.385Z,64.6
2018-06-05T10:03:11.606Z,64.7
2018-06-05T10:04:02.249Z,64.7
2018-06-05T10:04:52.015Z,64.8
2018-06-05T10:05:41.504Z,64.8
2018-06-05T10:06:32.080Z,64.9
2018-06-05T10:07:21.660Z,64.9
2018-06-05T10:08:12.196Z,65
2018-06-05T10:09:02.074Z,65.1
2018-06-05T10:09:52.101Z,65.1
2018-06-05T10:10:42.118Z,65.2
2018-06-05T10:11:32.490Z,65.3
2018-06-05T10:12:22.586Z,65.3
2018-06-05T10:13:12.057Z,65.3
2018-06-05T10:14:02.439Z,65.4
2018-06-05T10:14:51.889Z,65.4
2018-06-05T10:15:42.849Z,65.5
2018-06-05T10:16:32.356Z,65.6
2018-06-05T10:17:22.934Z,65.6
2018-06-05T10:18:12.740Z,65.7
2018-06-05T10:19:02.812Z,65.8
2018-06-05T10:19:52.623Z,65.8
2018-06-05T10:20:42.949Z,65.9
2018-06-05T10:21:32.692Z,65.9
2018-06-05T10:22:23.054Z,65.9
2018-06-05T10:23:13.135Z,66
2018-06-05T10:24:03.448Z,66.1
2018-06-05T10:24:53.224Z,66.1
2018-06-05T10:25:42.734Z,66.1
2018-06-05T10:26:33.356Z,66.2
2018-06-05T10:27:23.420Z,66.3
2018-06-05T10:28:13.487Z,66.3
2018-06-05T10:29:02.430Z,66.4
2018-06-05T10:29:53.912Z,66.5
2018-06-05T10:30:43.996Z,66.5
2018-06-05T10:31:33.484Z,66.6
2018-06-05T10:32:23.550Z,66.6
2018-06-05T10:33:13.895Z,66.6
2018-06-05T10:34:03.642Z,66.6
2018-06-05T10:34:54.029Z,66.6
2018-06-05T10:35:44.166Z,66.7
2018-06-05T10:36:34.187Z,66.8
2018-06-05T10:37:24.476Z,66.8
2018-06-05T10:38:14.516Z,66.9
2018-06-05T10:39:04.463Z,66.9
2018-06-05T10:39:54.737Z,66.9
2018-06-05T10:40:44.179Z,67
2018-06-05T10:41:33.959Z,67.1
2018-06-05T10:42:24.046Z,67.1
2018-06-05T10:43:14.386Z,67.1
2018-06-05T10:44:03.597Z,67.2
2018-06-05T10:44:54.468Z,67.3
2018-06-05T10:45:44.605Z,67.3
2018-06-05T10:46:34.368Z,67.4
2018-06-05T10:47:24.991Z,67.4
2018-06-05T10:48:15.087Z,67.4
2018-06-05T10:49:05.210Z,67.4
2018-06-05T10:49:55.207Z,67.5
2018-06-05T10:50:45.284Z,67.5
2018-06-05T10:51:35.368Z,67.6
2018-06-05T10:52:24.869Z,67.6
2018-06-05T10:53:15.181Z,67.7
2018-06-05T10:54:04.671Z,67.7
2018-06-05T10:54:55.596Z,67.7
2018-06-05T10:55:45.674Z,67.8
2018-06-05T10:56:35.726Z,67.8
2018-06-05T10:57:25.752Z,67.8
2018-06-05T10:58:16.113Z,67.8
2018-06-05T10:59:06.078Z,67.8
2018-06-05T10:59:55.975Z,67.9
2018-06-05T11:00:46.368Z,67.9
2018-06-05T11:01:36.497Z,67.9
2018-06-05T11:02:26.148Z,67.9
2018-06-05T11:03:16.265Z,68
2018-06-05T11:04:06.347Z,68
2018-06-05T11:04:56.073Z,68.1
2018-06-05T11:05:46.119Z,68.1
2018-06-05T11:06:36.212Z,68.1
2018-06-05T11:07:26.288Z,68.1
2018-06-05T11:08:16.681Z,68.1
2018-06-05T11:09:06.421Z,68.1
2018-06-05T11:09:56.153Z,68.2
2018-06-05T11:10:46.538Z,68.2